Terminal Aerodrome Forecast
Issued by NWS

Home | Current Version | Previous Version | Text Only | Print | Product List | Glossary On
Versions: 1 2 3 4 5 6 7 8 9 10 11 12 13 14 15 16 17 18
000
FTUS46 KOTX 242339
TAFSFF
TAF
KSFF 242339Z 2500/2524 VRB04KT P6SM SCT070 BKN100
     FM250200 VRB02KT P6SM BKN070
     FM251700 VRB02KT P6SM BKN070 OVC200
     FM252000 21004KT P6SM SCT070 BKN150 OVC200=

USA.gov is the U.S. government's official web portal to all federal, state and local government web resources and services.